Time;durP1;ratioP1;P1;durP2;ratioP2;P2;SDS_P1;SDS_P2;PMS_P1;PMS_P2;Temp;Humidity;BMP_temperature;BMP_pressure;BME280_temperature;BME280_humidity;BME280_pressure;Samples;Min_cycle;Max_cycle;Signal;HPM_P1;HPM_P2
2022/09/17 00:02:06;;;;;;;44.30;5.88;;;;;;;;;;4951398;29;20031;-71
2022/09/17 00:04:32;;;;;;;49.28;6.63;;;;;;;;;;4950862;28;20024;-71
2022/09/17 00:06:58;;;;;;;52.33;6.05;;;;;;;;;;4952567;28;20023;-71
2022/09/17 00:09:24;;;;;;;48.38;6.75;;;;;;;;;;4951313;29;20368;-72
2022/09/17 00:11:50;;;;;;;62.45;6.82;;;;;;;;;;4950850;28;20464;-71
2022/09/17 00:14:17;;;;;;;45.20;5.78;;;;;;;;;;4950764;28;20030;-72
2022/09/17 00:16:45;;;;;;;51.90;6.57;;;;;;;;;;4949500;28;20201;-71
2022/09/17 00:19:18;;;;;;;37.28;5.43;;;;;;;;;;4950822;29;20098;-71
2022/09/17 00:21:44;;;;;;;36.97;5.53;;;;;;;;;;4952118;28;20031;-71
2022/09/17 00:24:11;;;;;;;40.45;5.57;;;;;;;;;;4954030;28;20023;-71
2022/09/17 00:26:37;;;;;;;43.17;6.40;;;;;;;;;;4953895;29;20027;-72
2022/09/17 00:29:04;;;;;;;63.08;6.20;;;;;;;;;;4954172;29;20023;-72
2022/09/17 00:31:30;;;;;;;44.55;5.78;;;;;;;;;;4954172;29;20473;-70
2022/09/17 00:33:57;;;;;;;53.15;6.32;;;;;;;;;;4953853;28;20395;-71
2022/09/17 00:36:23;;;;;;;42.58;5.82;;;;;;;;;;4954048;28;20043;-71
2022/09/17 00:38:53;;;;;;;39.08;4.95;;;;;;;;;;4953954;29;20027;-71
2022/09/17 00:41:20;;;;;;;32.78;5.68;;;;;;;;;;4954032;28;20440;-70
2022/09/17 00:43:51;;;;;;;43.78;5.68;;;;;;;;;;4953837;28;20053;-71
2022/09/17 00:46:22;;;;;;;36.60;5.28;;;;;;;;;;4953728;29;20039;-70
2022/09/17 00:48:48;;;;;;;43.60;5.22;;;;;;;;;;4953763;29;20031;-71
2022/09/17 00:51:17;;;;;;;44.95;5.28;;;;;;;;;;4954039;28;20527;-72
2022/09/17 00:53:43;;;;;;;45.28;5.60;;;;;;;;;;4954174;28;20035;-72
2022/09/17 00:56:14;;;;;;;37.80;5.40;;;;;;;;;;4953683;29;20499;-71
2022/09/17 00:58:40;;;;;;;33.60;4.68;;;;;;;;;;4953994;28;20396;-72
2022/09/17 01:01:06;;;;;;;46.40;5.63;;;;;;;;;;4953913;29;20036;-71
2022/09/17 01:03:32;;;;;;;39.85;5.65;;;;;;;;;;4953753;29;20439;-71
2022/09/17 01:06:07;;;;;;;40.45;6.00;;;;;;;;;;4953893;28;20027;-71
2022/09/17 01:08:39;;;;;;;50.88;5.55;;;;;;;;;;4953634;29;20041;-71
2022/09/17 01:11:23;;;;;;;40.90;5.15;;;;;;;;;;4953674;28;20027;-71
2022/09/17 01:14:00;;;;;;;39.30;5.32;;;;;;;;;;4953785;28;20089;-70
2022/09/17 01:16:44;;;;;;;36.67;4.95;;;;;;;;;;4953274;28;20149;-71
2022/09/17 01:19:29;;;;;;;41.22;5.32;;;;;;;;;;4953652;28;20038;-72
2022/09/17 01:22:03;;;;;;;38.10;4.55;;;;;;;;;;4953527;29;20086;-70
2022/09/17 01:24:35;;;;;;;42.45;5.35;;;;;;;;;;4935250;29;20226;-72
2022/09/17 01:27:12;;;;;;;36.47;5.95;;;;;;;;;;4953156;29;20043;-71
2022/09/17 01:29:44;;;;;;;42.33;5.15;;;;;;;;;;4953205;29;20023;-72
2022/09/17 01:32:33;;;;;;;43.17;5.70;;;;;;;;;;4952882;28;20067;-72
2022/09/17 01:35:05;;;;;;;46.40;5.75;;;;;;;;;;4955269;28;20089;-71
2022/09/17 01:37:33;;;;;;;34.78;4.75;;;;;;;;;;4953215;29;20366;-71
2022/09/17 01:40:02;;;;;;;41.53;4.82;;;;;;;;;;4953082;29;20469;-71
2022/09/17 01:42:44;;;;;;;42.30;5.25;;;;;;;;;;4953135;28;20168;-71
2022/09/17 01:45:10;;;;;;;34.92;4.28;;;;;;;;;;4953019;28;20499;-72
2022/09/17 01:47:38;;;;;;;36.72;4.35;;;;;;;;;;4935689;29;20024;-72
2022/09/17 01:50:07;;;;;;;36.17;4.68;;;;;;;;;;4953209;28;20031;-72
2022/09/17 01:52:35;;;;;;;34.45;4.13;;;;;;;;;;4953345;29;20023;-70
2022/09/17 01:55:08;;;;;;;35.22;4.40;;;;;;;;;;4936046;28;20542;-72
2022/09/17 01:57:34;;;;;;;45.08;5.15;;;;;;;;;;4959472;28;20031;-71
2022/09/17 02:00:06;;;;;;;36.85;4.57;;;;;;;;;;4970895;28;20062;-72
2022/09/17 02:02:35;;;;;;;37.60;5.43;;;;;;;;;;4970851;29;20038;-72
2022/09/17 02:05:05;;;;;;;37.85;4.97;;;;;;;;;;4965777;28;20043;-71
2022/09/17 02:07:33;;;;;;;33.35;4.70;;;;;;;;;;4970232;28;20027;-71
2022/09/17 02:10:02;;;;;;;41.47;5.18;;;;;;;;;;4964634;28;20106;-72
2022/09/17 02:12:32;;;;;;;38.15;4.90;;;;;;;;;;4956296;28;20023;-73
2022/09/17 02:15:00;;;;;;;43.83;5.15;;;;;;;;;;4959263;28;20026;-73
2022/09/17 02:17:29;;;;;;;34.53;5.20;;;;;;;;;;4957924;29;20035;-71
2022/09/17 02:19:55;;;;;;;37.63;5.95;;;;;;;;;;4953672;29;20035;-71
2022/09/17 02:22:29;;;;;;;37.40;5.07;;;;;;;;;;4953237;28;20035;-73
2022/09/17 02:24:55;;;;;;;38.37;5.13;;;;;;;;;;4954077;28;20607;-72
2022/09/17 02:27:30;;;;;;;43.03;5.10;;;;;;;;;;4952979;28;20031;-72
2022/09/17 02:29:56;;;;;;;39.08;4.90;;;;;;;;;;4955478;29;20023;-72
2022/09/17 02:32:23;;;;;;;41.53;6.03;;;;;;;;;;4955362;29;20031;-72
2022/09/17 02:34:49;;;;;;;38.65;5.85;;;;;;;;;;4937312;29;20023;-72
2022/09/17 02:37:15;;;;;;;38.63;5.18;;;;;;;;;;4955812;29;20069;-72
2022/09/17 02:39:42;;;;;;;34.30;4.25;;;;;;;;;;4938050;29;20101;-71
2022/09/17 02:42:07;;;;;;;35.10;5.28;;;;;;;;;;4955070;29;20023;-70
2022/09/17 02:44:39;;;;;;;32.22;4.95;;;;;;;;;;4955503;28;20481;-72
2022/09/17 02:47:08;;;;;;;34.88;5.10;;;;;;;;;;4956931;29;20046;-72
2022/09/17 02:49:59;;;;;;;42.10;4.90;;;;;;;;;;4957529;29;20038;-72
2022/09/17 02:52:43;;;;;;;35.00;5.60;;;;;;;;;;4937852;29;20031;-73
2022/09/17 02:55:24;;;;;;;37.95;4.60;;;;;;;;;;4953261;28;20050;-73
2022/09/17 02:57:54;;;;;;;37.13;4.90;;;;;;;;;;4954453;28;20031;-72
2022/09/17 03:00:21;;;;;;;42.28;4.75;;;;;;;;;;4953925;29;20027;-72
2022/09/17 03:02:47;;;;;;;51.83;6.30;;;;;;;;;;4952376;29;20063;-72
2022/09/17 03:05:14;;;;;;;37.28;4.63;;;;;;;;;;4952096;28;20070;-72
2022/09/17 03:07:40;;;;;;;43.35;5.80;;;;;;;;;;4953823;29;20027;-73
2022/09/17 03:10:06;;;;;;;38.58;4.80;;;;;;;;;;4956824;29;20034;-73
2022/09/17 03:12:32;;;;;;;33.22;4.55;;;;;;;;;;4953002;28;20085;-73
2022/09/17 03:14:58;;;;;;;38.22;5.03;;;;;;;;;;4952239;28;20027;-72
2022/09/17 03:17:24;;;;;;;39.60;4.30;;;;;;;;;;4934142;29;20050;-73
2022/09/17 03:19:50;;;;;;;41.90;5.22;;;;;;;;;;4951230;29;20500;-73
2022/09/17 03:22:16;;;;;;;35.13;4.50;;;;;;;;;;4951401;29;20042;-71
2022/09/17 03:24:42;;;;;;;39.03;4.32;;;;;;;;;;4934055;29;20030;-73
2022/09/17 03:27:08;;;;;;;38.70;5.47;;;;;;;;;;4951476;29;20377;-72
2022/09/17 03:29:34;;;;;;;40.25;4.85;;;;;;;;;;4951592;29;20027;-71
2022/09/17 03:32:00;;;;;;;31.25;4.28;;;;;;;;;;4951670;29;20500;-70
2022/09/17 03:34:26;;;;;;;38.53;4.28;;;;;;;;;;4951921;28;20106;-72
2022/09/17 03:36:52;;;;;;;26.00;3.70;;;;;;;;;;4934215;29;20109;-73
2022/09/17 03:39:18;;;;;;;30.65;4.07;;;;;;;;;;4951524;29;20035;-72
2022/09/17 03:41:44;;;;;;;36.05;4.28;;;;;;;;;;4951146;29;20031;-72
2022/09/17 03:44:10;;;;;;;45.88;5.15;;;;;;;;;;4951729;28;20054;-72
2022/09/17 03:46:36;;;;;;;32.28;4.43;;;;;;;;;;4950932;28;20033;-72
2022/09/17 03:49:02;;;;;;;35.65;4.65;;;;;;;;;;4951381;29;20027;-71
2022/09/17 03:51:28;;;;;;;34.65;4.43;;;;;;;;;;4951605;28;20432;-73
2022/09/17 03:53:54;;;;;;;40.95;5.28;;;;;;;;;;4951092;28;20031;-72
2022/09/17 03:56:20;;;;;;;29.27;4.85;;;;;;;;;;4952284;29;20576;-72
2022/09/17 03:58:46;;;;;;;24.85;3.58;;;;;;;;;;4954618;29;20067;-70
2022/09/17 04:01:13;;;;;;;33.70;4.43;;;;;;;;;;4954821;29;20058;-72
2022/09/17 04:03:39;;;;;;;26.77;4.22;;;;;;;;;;4954678;29;20059;-74
2022/09/17 04:06:05;;;;;;;30.05;4.60;;;;;;;;;;4954314;28;20452;-72
2022/09/17 04:08:31;;;;;;;32.15;4.20;;;;;;;;;;4954590;29;20031;-71
2022/09/17 04:10:57;;;;;;;28.10;3.58;;;;;;;;;;4937227;29;20210;-73
2022/09/17 04:13:23;;;;;;;29.75;4.65;;;;;;;;;;4957160;29;20023;-73
2022/09/17 04:15:50;;;;;;;33.10;5.18;;;;;;;;;;4954228;28;20114;-72
2022/09/17 04:18:16;;;;;;;26.63;4.28;;;;;;;;;;4954349;28;20034;-72
2022/09/17 04:20:43;;;;;;;37.00;5.13;;;;;;;;;;4956665;29;20027;-71
2022/09/17 04:23:10;;;;;;;27.38;3.90;;;;;;;;;;4953928;29;20031;-71
2022/09/17 04:25:36;;;;;;;32.80;3.78;;;;;;;;;;4971778;28;20118;-71
2022/09/17 04:28:02;;;;;;;35.13;4.68;;;;;;;;;;4953928;29;20027;-72
2022/09/17 04:30:28;;;;;;;35.58;4.32;;;;;;;;;;4966284;29;20050;-71
2022/09/17 04:32:54;;;;;;;35.22;4.55;;;;;;;;;;4954224;29;20028;-73
2022/09/17 04:35:20;;;;;;;32.38;4.40;;;;;;;;;;4970979;28;20031;-72
2022/09/17 04:37:53;;;;;;;33.38;4.10;;;;;;;;;;4962133;29;20031;-73
2022/09/17 04:40:19;;;;;;;32.30;4.40;;;;;;;;;;4954135;28;20112;-71
2022/09/17 04:42:45;;;;;;;29.95;4.43;;;;;;;;;;4954060;29;20035;-73
2022/09/17 04:45:11;;;;;;;29.58;4.88;;;;;;;;;;4954595;28;20094;-73
2022/09/17 04:47:38;;;;;;;34.33;4.30;;;;;;;;;;4954228;28;20059;-74
2022/09/17 04:50:04;;;;;;;32.45;4.35;;;;;;;;;;4954671;29;20047;-74
2022/09/17 04:52:30;;;;;;;34.53;4.80;;;;;;;;;;4954394;29;20023;-74
2022/09/17 04:54:56;;;;;;;36.63;5.57;;;;;;;;;;4953940;28;20105;-74
2022/09/17 04:57:24;;;;;;;29.88;4.50;;;;;;;;;;4955007;28;20062;-74
2022/09/17 04:59:50;;;;;;;30.80;4.35;;;;;;;;;;4956989;29;20054;-73
2022/09/17 05:02:16;;;;;;;29.27;4.03;;;;;;;;;;4953960;29;20434;-72
2022/09/17 05:04:49;;;;;;;30.55;5.07;;;;;;;;;;4954655;28;20038;-73
2022/09/17 05:07:15;;;;;;;33.15;4.50;;;;;;;;;;4936766;29;20027;-73
2022/09/17 05:09:41;;;;;;;27.95;5.03;;;;;;;;;;4953436;29;20032;-72
2022/09/17 05:12:08;;;;;;;38.40;4.75;;;;;;;;;;4953453;29;20019;-73
2022/09/17 05:14:34;;;;;;;34.13;4.65;;;;;;;;;;4953763;28;20077;-74
2022/09/17 05:17:00;;;;;;;44.00;5.53;;;;;;;;;;4953396;29;20472;-74
2022/09/17 05:19:25;;;;;;;31.27;4.85;;;;;;;;;;4936325;29;20388;-74
2022/09/17 05:21:51;;;;;;;31.83;4.47;;;;;;;;;;4953629;28;20085;-73
2022/09/17 05:24:17;;;;;;;34.55;5.03;;;;;;;;;;4955011;28;20085;-73
2022/09/17 05:26:43;;;;;;;27.45;3.63;;;;;;;;;;4953458;29;20110;-73
2022/09/17 05:29:09;;;;;;;35.55;5.03;;;;;;;;;;4954997;29;20075;-75
2022/09/17 05:31:35;;;;;;;34.47;4.47;;;;;;;;;;4955379;28;20051;-72
2022/09/17 05:34:01;;;;;;;38.70;4.63;;;;;;;;;;4960503;28;20098;-75
2022/09/17 05:36:27;;;;;;;33.80;4.25;;;;;;;;;;4958311;29;20396;-73
2022/09/17 05:38:53;;;;;;;19.90;3.28;;;;;;;;;;4955488;28;20071;-73
2022/09/17 05:41:19;;;;;;;30.73;3.92;;;;;;;;;;4956556;29;20031;-72
2022/09/17 05:43:45;;;;;;;30.35;3.97;;;;;;;;;;4956839;28;20103;-73
2022/09/17 05:46:11;;;;;;;32.03;4.43;;;;;;;;;;4958203;28;20035;-71
2022/09/17 05:48:37;;;;;;;34.13;4.50;;;;;;;;;;4959901;28;20031;-71
2022/09/17 05:51:03;;;;;;;26.45;3.97;;;;;;;;;;4959903;28;20030;-72
2022/09/17 05:53:29;;;;;;;30.77;4.03;;;;;;;;;;4957513;29;20043;-72
2022/09/17 05:55:58;;;;;;;37.42;4.78;;;;;;;;;;4954408;28;20034;-72
2022/09/17 05:58:25;;;;;;;34.17;4.10;;;;;;;;;;4953389;28;20043;-69
2022/09/17 06:00:52;;;;;;;36.95;4.43;;;;;;;;;;4953220;29;20050;-71
2022/09/17 06:03:18;;;;;;;32.45;3.95;;;;;;;;;;4952881;28;20023;-72
2022/09/17 06:05:52;;;;;;;37.58;4.55;;;;;;;;;;4952490;28;20480;-73
2022/09/17 06:08:18;;;;;;;38.83;4.72;;;;;;;;;;4953273;29;20384;-75
2022/09/17 06:10:44;;;;;;;35.50;4.15;;;;;;;;;;4936779;29;20506;-74
2022/09/17 06:13:10;;;;;;;37.63;4.30;;;;;;;;;;4953287;29;20045;-73
2022/09/17 06:15:36;;;;;;;30.67;4.07;;;;;;;;;;4952374;28;20023;-74
2022/09/17 06:18:02;;;;;;;34.60;4.03;;;;;;;;;;4952383;29;20391;-74
2022/09/17 06:20:28;;;;;;;35.15;4.25;;;;;;;;;;4951306;29;20507;-74
2022/09/17 06:22:57;;;;;;;26.42;3.90;;;;;;;;;;4952205;29;20043;-74
2022/09/17 06:25:23;;;;;;;26.50;3.80;;;;;;;;;;4951720;28;20114;-74
2022/09/17 06:27:49;;;;;;;28.48;3.42;;;;;;;;;;4952219;28;20051;-75
2022/09/17 06:30:15;;;;;;;31.52;3.55;;;;;;;;;;4952129;28;20023;-74
2022/09/17 06:32:41;;;;;;;40.83;5.30;;;;;;;;;;4952231;28;20511;-71
2022/09/17 06:35:07;;;;;;;28.90;3.72;;;;;;;;;;4952003;28;20036;-71
2022/09/17 06:37:34;;;;;;;34.05;4.57;;;;;;;;;;4951622;29;20032;-71
2022/09/17 06:40:00;;;;;;;28.02;3.90;;;;;;;;;;4951981;28;20023;-72
2022/09/17 06:42:27;;;;;;;19.40;3.50;;;;;;;;;;4951793;28;20106;-72
2022/09/17 06:44:53;;;;;;;33.25;4.20;;;;;;;;;;4952056;28;20028;-75
2022/09/17 06:47:19;;;;;;;22.23;2.78;;;;;;;;;;4951856;29;20032;-72
2022/09/17 06:49:45;;;;;;;24.33;3.10;;;;;;;;;;4952035;29;20169;-72
2022/09/17 06:52:11;;;;;;;25.42;3.17;;;;;;;;;;4952242;29;20481;-70
2022/09/17 06:54:37;;;;;;;20.85;3.00;;;;;;;;;;4953904;28;20520;-72
2022/09/17 06:57:03;;;;;;;18.55;2.78;;;;;;;;;;4952202;28;20024;-71
2022/09/17 06:59:29;;;;;;;19.92;2.47;;;;;;;;;;4934543;29;20599;-71
2022/09/17 07:01:55;;;;;;;16.90;2.28;;;;;;;;;;4951853;29;20059;-70
2022/09/17 07:04:21;;;;;;;14.13;1.92;;;;;;;;;;4951733;28;20084;-72
2022/09/17 07:06:47;;;;;;;14.85;2.13;;;;;;;;;;4934718;29;20035;-72
2022/09/17 07:09:13;;;;;;;20.60;2.40;;;;;;;;;;4951837;28;20023;-72
2022/09/17 07:11:39;;;;;;;10.95;1.92;;;;;;;;;;4934784;29;20385;-71
2022/09/17 07:14:05;;;;;;;11.52;2.22;;;;;;;;;;4951710;28;20099;-73
2022/09/17 07:16:33;;;;;;;17.70;2.42;;;;;;;;;;4951477;29;20023;-73
2022/09/17 07:19:00;;;;;;;8.63;1.77;;;;;;;;;;4950614;28;20103;-73
2022/09/17 07:21:26;;;;;;;9.27;1.80;;;;;;;;;;4956779;28;20027;-72
2022/09/17 07:23:52;;;;;;;15.95;2.60;;;;;;;;;;4956406;28;20380;-71
2022/09/17 07:26:18;;;;;;;15.65;1.98;;;;;;;;;;4951308;29;20027;-71
2022/09/17 07:28:44;;;;;;;7.70;1.40;;;;;;;;;;4951963;28;20027;-71
2022/09/17 07:31:11;;;;;;;14.93;2.25;;;;;;;;;;4952917;28;20024;-72
2022/09/17 07:33:37;;;;;;;12.95;2.60;;;;;;;;;;4951643;28;20118;-72
2022/09/17 07:36:12;;;;;;;15.85;2.10;;;;;;;;;;4950969;28;20031;-70
2022/09/17 07:38:38;;;;;;;13.80;1.95;;;;;;;;;;4934151;28;20118;-72
2022/09/17 07:41:12;;;;;;;10.43;1.80;;;;;;;;;;4952043;28;20081;-71
2022/09/17 07:43:38;;;;;;;10.20;1.98;;;;;;;;;;4952422;28;20073;-72
2022/09/17 07:46:05;;;;;;;15.52;3.35;;;;;;;;;;4951586;28;20031;-76
2022/09/17 07:48:31;;;;;;;13.50;2.15;;;;;;;;;;4951625;28;20028;-74
2022/09/17 07:50:57;;;;;;;16.90;2.70;;;;;;;;;;4952502;28;20028;-72
2022/09/17 07:53:23;;;;;;;14.82;3.28;;;;;;;;;;4952736;28;20358;-73
2022/09/17 07:55:56;;;;;;;13.70;2.63;;;;;;;;;;4951475;28;20089;-72
2022/09/17 07:58:23;;;;;;;15.10;2.28;;;;;;;;;;4952232;28;20111;-73
2022/09/17 08:00:49;;;;;;;16.45;2.88;;;;;;;;;;4953137;28;20138;-74
2022/09/17 08:03:16;;;;;;;24.67;2.97;;;;;;;;;;4953405;29;20027;-71
2022/09/17 08:05:42;;;;;;;18.23;2.60;;;;;;;;;;4952376;28;20144;-70
2022/09/17 08:08:08;;;;;;;22.83;2.95;;;;;;;;;;4954714;28;20028;-72
2022/09/17 08:10:34;;;;;;;18.05;2.55;;;;;;;;;;4953367;28;20499;-72
2022/09/17 08:13:00;;;;;;;21.73;3.00;;;;;;;;;;4954613;29;20380;-72
2022/09/17 08:15:27;;;;;;;14.43;2.70;;;;;;;;;;4966658;28;20081;-71
2022/09/17 08:17:53;;;;;;;21.67;3.00;;;;;;;;;;4952795;28;20081;-71
2022/09/17 08:20:19;;;;;;;23.20;2.72;;;;;;;;;;4936512;28;20027;-72
2022/09/17 08:22:45;;;;;;;19.85;3.47;;;;;;;;;;4955046;28;20118;-71
2022/09/17 08:25:11;;;;;;;20.20;2.55;;;;;;;;;;4951829;28;20110;-71
2022/09/17 08:27:40;;;;;;;15.45;2.42;;;;;;;;;;4952729;28;20038;-72
2022/09/17 08:30:07;;;;;;;19.75;3.03;;;;;;;;;;4953130;28;20027;-74
2022/09/17 08:32:33;;;;;;;18.27;3.00;;;;;;;;;;4958645;28;20042;-72
2022/09/17 08:34:59;;;;;;;14.38;2.50;;;;;;;;;;4957415;28;20027;-72
2022/09/17 08:37:26;;;;;;;20.42;4.22;;;;;;;;;;4958177;28;20034;-71
2022/09/17 08:39:52;;;;;;;16.38;3.00;;;;;;;;;;4958298;28;20081;-71
2022/09/17 08:42:30;;;;;;;12.43;2.50;;;;;;;;;;4958612;28;20126;-71
2022/09/17 08:44:56;;;;;;;22.73;2.90;;;;;;;;;;4961621;28;20020;-72
2022/09/17 08:47:25;;;;;;;21.58;2.80;;;;;;;;;;4961469;28;20034;-72
2022/09/17 08:50:07;;;;;;;17.55;2.00;;;;;;;;;;4962646;28;20035;-72
2022/09/17 08:52:46;;;;;;;12.95;1.70;;;;;;;;;;4963694;28;20031;-70
2022/09/17 08:55:17;;;;;;;7.93;1.67;;;;;;;;;;4945169;28;20032;-70
2022/09/17 08:57:50;;;;;;;12.05;1.90;;;;;;;;;;4958728;28;20042;-72
2022/09/17 09:00:17;;;;;;;13.45;2.05;;;;;;;;;;4962786;28;20038;-73
2022/09/17 09:02:53;;;;;;;14.95;1.80;;;;;;;;;;4968656;29;20051;-73
2022/09/17 09:05:29;;;;;;;19.25;2.80;;;;;;;;;;4965281;28;20028;-73
2022/09/17 09:08:03;;;;;;;15.10;1.67;;;;;;;;;;4962999;28;20035;-73
2022/09/17 09:10:32;;;;;;;13.60;1.87;;;;;;;;;;4967040;28;20033;-76
2022/09/17 09:12:59;;;;;;;6.03;1.08;;;;;;;;;;4961754;28;20476;-75
2022/09/17 09:15:29;;;;;;;6.65;1.10;;;;;;;;;;4965087;28;20077;-74
2022/09/17 09:17:56;;;;;;;13.85;1.33;;;;;;;;;;4962255;28;20110;-73
2022/09/17 09:20:28;;;;;;;7.53;1.75;;;;;;;;;;4958026;28;20061;-71
2022/09/17 09:22:55;;;;;;;9.02;1.23;;;;;;;;;;4953683;29;20114;-71
2022/09/17 09:25:28;;;;;;;3.25;0.80;;;;;;;;;;4954078;28;20031;-73
2022/09/17 09:28:05;;;;;;;3.45;0.60;;;;;;;;;;4938408;28;20035;-73
2022/09/17 09:30:37;;;;;;;3.13;0.60;;;;;;;;;;4953673;28;20281;-71
2022/09/17 09:33:11;;;;;;;5.03;0.95;;;;;;;;;;4953082;29;20212;-72
2022/09/17 09:35:40;;;;;;;5.97;1.50;;;;;;;;;;4952620;28;20480;-72
2022/09/17 09:38:09;;;;;;;7.97;1.23;;;;;;;;;;4935763;28;20050;-71
2022/09/17 09:40:41;;;;;;;8.55;1.20;;;;;;;;;;4953623;28;20102;-73
2022/09/17 09:43:27;;;;;;;5.97;1.02;;;;;;;;;;4953178;28;20077;-72
2022/09/17 09:45:56;;;;;;;6.32;0.93;;;;;;;;;;4946189;28;20127;-74
2022/09/17 09:48:31;;;;;;;7.75;1.25;;;;;;;;;;4956271;28;20055;-72
2022/09/17 09:51:00;;;;;;;7.88;1.00;;;;;;;;;;4936905;28;20109;-71
2022/09/17 09:53:38;;;;;;;5.82;0.90;;;;;;;;;;4952423;28;20325;-72
2022/09/17 09:56:20;;;;;;;5.03;0.80;;;;;;;;;;4952516;28;20035;-72
2022/09/17 09:58:46;;;;;;;6.53;0.90;;;;;;;;;;4953508;28;20030;-72
2022/09/17 10:01:13;;;;;;;4.75;1.10;;;;;;;;;;4952670;29;20152;-73
2022/09/17 10:03:40;;;;;;;8.70;1.33;;;;;;;;;;4952633;28;20027;-72
2022/09/17 10:06:10;;;;;;;7.57;1.48;;;;;;;;;;4952234;28;20046;-72
2022/09/17 10:08:37;;;;;;;6.50;1.40;;;;;;;;;;4953517;28;20034;-71
2022/09/17 10:11:05;;;;;;;10.27;1.55;;;;;;;;;;4952583;29;20027;-72
2022/09/17 10:13:32;;;;;;;8.68;1.75;;;;;;;;;;4955750;28;20503;-73
2022/09/17 10:16:15;;;;;;;11.15;1.67;;;;;;;;;;4952961;28;20081;-72
2022/09/17 10:18:41;;;;;;;11.10;1.92;;;;;;;;;;4951772;28;20237;-73
2022/09/17 10:21:18;;;;;;;10.55;1.60;;;;;;;;;;4952556;28;20031;-73
2022/09/17 10:23:44;;;;;;;14.00;2.28;;;;;;;;;;4952585;28;20036;-72
2022/09/17 10:26:20;;;;;;;12.68;1.55;;;;;;;;;;4952115;28;20110;-73
2022/09/17 10:28:59;;;;;;;12.35;1.95;;;;;;;;;;4952520;29;20423;-72
2022/09/17 10:31:25;;;;;;;10.43;1.77;;;;;;;;;;4952213;29;20047;-73
2022/09/17 10:33:52;;;;;;;9.80;2.00;;;;;;;;;;4953940;28;20027;-72
2022/09/17 10:36:34;;;;;;;10.77;2.33;;;;;;;;;;4942376;29;20039;-71
2022/09/17 10:39:17;;;;;;;11.10;2.08;;;;;;;;;;4946219;29;20053;-72
2022/09/17 10:41:55;;;;;;;9.00;1.48;;;;;;;;;;4965323;29;20086;-71
2022/09/17 10:44:22;;;;;;;8.20;1.52;;;;;;;;;;4965620;28;20128;-70
2022/09/17 10:46:49;;;;;;;14.68;2.33;;;;;;;;;;4966590;28;20046;-70
2022/09/17 10:49:26;;;;;;;15.18;2.60;;;;;;;;;;4966764;29;20027;-72
2022/09/17 10:51:52;;;;;;;7.60;2.10;;;;;;;;;;4968669;29;20031;-73
2022/09/17 10:54:39;;;;;;;9.90;2.00;;;;;;;;;;4968884;28;20207;-71
2022/09/17 10:57:07;;;;;;;7.45;1.35;;;;;;;;;;4944517;28;20027;-73
2022/09/17 10:59:49;;;;;;;6.95;1.55;;;;;;;;;;4962635;29;20031;-72
2022/09/17 11:02:24;;;;;;;7.38;1.95;;;;;;;;;;4939594;29;20062;-71
2022/09/17 11:04:56;;;;;;;8.68;1.83;;;;;;;;;;4950929;28;20077;-71
2022/09/17 11:07:32;;;;;;;8.25;1.63;;;;;;;;;;4934816;29;20084;-72
2022/09/17 11:10:01;;;;;;;11.18;1.75;;;;;;;;;;4952212;28;20077;-73
2022/09/17 11:12:44;;;;;;;11.88;2.47;;;;;;;;;;4952180;29;20251;-71
2022/09/17 11:15:10;;;;;;;12.45;1.85;;;;;;;;;;4938559;29;20031;-71
2022/09/17 11:17:51;;;;;;;12.32;2.00;;;;;;;;;;4954373;28;20038;-73
2022/09/17 11:20:36;;;;;;;10.73;2.38;;;;;;;;;;4955464;29;20036;-72
2022/09/17 11:23:34;;;;;;;7.53;1.52;;;;;;;;;;4935779;28;20085;-72
2022/09/17 11:26:04;;;;;;;11.27;1.90;;;;;;;;;;4962362;28;20047;-72
2022/09/17 11:28:42;;;;;;;10.80;2.30;;;;;;;;;;4956316;29;20031;-75
2022/09/17 11:31:14;;;;;;;5.10;1.13;;;;;;;;;;4952930;29;20034;-75
2022/09/17 11:33:40;;;;;;;5.85;1.45;;;;;;;;;;4952195;29;20070;-74
2022/09/17 11:36:20;;;;;;;6.95;1.40;;;;;;;;;;4954856;28;20023;-74
2022/09/17 11:38:50;;;;;;;6.10;1.50;;;;;;;;;;4952590;28;20118;-73
2022/09/17 11:41:20;;;;;;;7.28;1.75;;;;;;;;;;4959343;28;20526;-73
2022/09/17 11:43:54;;;;;;;10.30;2.50;;;;;;;;;;4959279;28;20038;-75
2022/09/17 11:46:25;;;;;;;8.85;2.00;;;;;;;;;;4965035;29;20035;-73
2022/09/17 11:48:54;;;;;;;10.60;2.22;;;;;;;;;;4963466;29;20090;-73
2022/09/17 11:51:40;;;;;;;9.25;2.17;;;;;;;;;;4964229;28;20034;-73
2022/09/17 11:54:06;;;;;;;8.35;2.08;;;;;;;;;;4964803;28;20029;-74
2022/09/17 11:56:41;;;;;;;12.52;2.10;;;;;;;;;;4968230;29;20031;-74
2022/09/17 11:59:14;;;;;;;13.55;2.65;;;;;;;;;;4966732;28;20035;-74
2022/09/17 12:01:56;;;;;;;8.98;2.85;;;;;;;;;;4960689;29;20102;-74
2022/09/17 12:04:29;;;;;;;14.57;2.42;;;;;;;;;;4963636;28;20446;-73
2022/09/17 12:07:14;;;;;;;12.40;2.42;;;;;;;;;;4953888;28;20030;-75
2022/09/17 12:09:40;;;;;;;;;;;;;;;;;;4951505;29;20103;-73
2022/09/17 12:12:15;;;;;;;17.63;2.53;;;;;;;;;;4951494;28;19906;-72
2022/09/17 12:14:47;;;;;;;9.88;2.13;;;;;;;;;;4951135;28;20057;-72
2022/09/17 12:17:16;;;;;;;14.77;2.40;;;;;;;;;;4951665;28;20099;-73
2022/09/17 12:19:45;;;;;;;13.82;2.75;;;;;;;;;;4937659;28;20105;-74
2022/09/17 12:22:17;;;;;;;12.32;2.08;;;;;;;;;;4959126;28;20105;-73
2022/09/17 12:24:43;;;;;;;14.25;2.25;;;;;;;;;;4940773;29;20085;-75
2022/09/17 12:27:12;;;;;;;11.30;2.50;;;;;;;;;;4936856;29;20023;-74
2022/09/17 12:30:03;;;;;;;9.55;2.47;;;;;;;;;;4954348;29;20023;-76
2022/09/17 12:32:35;;;;;;;8.95;2.13;;;;;;;;;;4955794;28;20031;-76
2022/09/17 12:35:07;;;;;;;10.50;2.20;;;;;;;;;;4954766;28;20027;-76
2022/09/17 12:37:36;;;;;;;12.02;2.67;;;;;;;;;;4938376;29;20084;-76
2022/09/17 12:40:02;;;;;;;11.40;2.88;;;;;;;;;;4937450;29;20035;-78
2022/09/17 12:42:41;;;;;;;12.73;2.55;;;;;;;;;;4939305;29;20034;-75
2022/09/17 12:45:07;;;;;;;11.23;2.38;;;;;;;;;;4945825;29;20447;-74
2022/09/17 12:47:33;;;;;;;15.85;2.25;;;;;;;;;;4964818;28;20027;-75
2022/09/17 12:50:13;;;;;;;7.65;2.22;;;;;;;;;;4960766;29;20049;-73
2022/09/17 12:52:45;;;;;;;13.07;2.50;;;;;;;;;;4969455;29;20120;-73
2022/09/17 12:55:17;;;;;;;10.35;2.60;;;;;;;;;;4942108;28;20114;-72
2022/09/17 12:57:51;;;;;;;10.25;2.60;;;;;;;;;;4957958;28;20066;-73
2022/09/17 13:00:17;;;;;;;14.70;3.17;;;;;;;;;;4954588;28;20384;-75
2022/09/17 13:02:48;;;;;;;13.30;3.63;;;;;;;;;;4937838;29;20057;-76
2022/09/17 13:05:32;;;;;;;15.43;3.10;;;;;;;;;;4938574;29;20036;-73
2022/09/17 13:08:04;;;;;;;11.02;2.95;;;;;;;;;;4938278;29;20142;-73
2022/09/17 13:10:39;;;;;;;16.98;3.92;;;;;;;;;;4957337;28;20098;-74
2022/09/17 13:13:12;;;;;;;14.10;3.50;;;;;;;;;;4954632;29;20031;-72
2022/09/17 13:15:54;;;;;;;13.63;2.78;;;;;;;;;;4953475;28;20059;-72
2022/09/17 13:18:23;;;;;;;8.38;2.40;;;;;;;;;;4953590;29;20077;-72
2022/09/17 13:20:52;;;;;;;7.53;1.73;;;;;;;;;;4953833;28;20058;-71
2022/09/17 13:23:28;;;;;;;8.90;2.10;;;;;;;;;;4957792;29;20031;-72
2022/09/17 13:25:54;;;;;;;4.93;1.10;;;;;;;;;;4954160;28;20035;-72
2022/09/17 13:28:20;;;;;;;8.68;1.40;;;;;;;;;;4954212;28;20030;-72
2022/09/17 13:30:55;;;;;;;6.20;1.80;;;;;;;;;;4937322;29;20388;-72
2022/09/17 13:33:40;;;;;;;4.65;1.30;;;;;;;;;;4954263;29;20369;-73
2022/09/17 13:36:26;;;;;;;4.78;0.95;;;;;;;;;;4954285;28;20034;-73
2022/09/17 13:38:52;;;;;;;7.28;1.20;;;;;;;;;;4953727;28;20085;-72
2022/09/17 13:41:20;;;;;;;3.72;1.05;;;;;;;;;;4959507;29;20062;-73
2022/09/17 13:43:46;;;;;;;3.03;0.95;;;;;;;;;;4968206;28;20019;-73
2022/09/17 13:46:14;;;;;;;3.45;0.80;;;;;;;;;;4967870;29;20027;-73
2022/09/17 13:48:46;;;;;;;6.82;2.08;;;;;;;;;;4944451;29;20031;-73
2022/09/17 13:51:30;;;;;;;4.57;0.80;;;;;;;;;;4960193;28;20063;-73
2022/09/17 13:54:00;;;;;;;2.33;0.88;;;;;;;;;;4962835;28;20085;-73
2022/09/17 13:56:30;;;;;;;9.40;1.60;;;;;;;;;;4963079;29;20024;-74
2022/09/17 13:59:05;;;;;;;11.90;7.43;;;;;;;;;;4963211;29;20027;-74
2022/09/17 14:01:50;;;;;;;5.25;2.65;;;;;;;;;;4964277;28;20211;-71
2022/09/17 14:04:33;;;;;;;3.55;0.95;;;;;;;;;;4963422;28;20134;-71
2022/09/17 14:06:59;;;;;;;5.80;1.30;;;;;;;;;;4959159;29;20442;-72
2022/09/17 14:09:33;;;;;;;4.57;1.02;;;;;;;;;;4937738;29;20023;-72
2022/09/17 14:11:58;;;;;;;7.50;1.90;;;;;;;;;;4953858;29;20477;-73
2022/09/17 14:14:27;;;;;;;2.72;1.10;;;;;;;;;;4935947;28;20027;-71
2022/09/17 14:16:54;;;;;;;2.97;1.10;;;;;;;;;;4952664;28;20035;-80
2022/09/17 14:19:23;;;;;;;4.32;1.50;;;;;;;;;;4952820;29;20107;-72
2022/09/17 14:21:56;;;;;;;4.55;1.30;;;;;;;;;;4953100;29;20031;-72
2022/09/17 14:24:26;;;;;;;3.65;1.20;;;;;;;;;;4952412;28;20027;-73
2022/09/17 14:26:52;;;;;;;4.63;1.02;;;;;;;;;;4949544;28;20032;-72
2022/09/17 14:29:30;;;;;;;3.97;1.10;;;;;;;;;;4951704;28;20583;-71
2022/09/17 14:31:56;;;;;;;7.82;1.05;;;;;;;;;;4953100;28;20024;-73
2022/09/17 14:34:24;;;;;;;9.50;1.88;;;;;;;;;;4953232;28;20089;-72
2022/09/17 14:36:50;;;;;;;11.15;1.90;;;;;;;;;;4952258;28;20028;-73
2022/09/17 14:39:20;;;;;;;8.95;2.30;;;;;;;;;;4951927;28;20028;-72
2022/09/17 14:41:47;;;;;;;8.63;2.40;;;;;;;;;;4952302;29;20081;-74
2022/09/17 14:44:20;;;;;;;10.52;2.35;;;;;;;;;;4952810;28;20388;-71
2022/09/17 14:46:52;;;;;;;9.85;2.05;;;;;;;;;;4936324;28;20031;-73
2022/09/17 14:49:22;;;;;;;4.97;1.40;;;;;;;;;;4953390;28;20075;-72